Time;durP1;ratioP1;P1;durP2;ratioP2;P2;SDS_P1;SDS_P2;PMS_P1;PMS_P2;Temp;Humidity;BMP_temperature;BMP_pressure;BME280_temperature;BME280_humidity;BME280_pressure;Samples;Min_cycle;Max_cycle;Signal;HPM_P1;HPM_P2
2021/09/08 00:00:01;;;;;;;22.37;14.55;;;;;;;8.19;100.00;102317.24;1736735;82;21003;-83
2021/09/08 00:02:28;;;;;;;25.15;14.63;;;;;;;8.19;100.00;102314.65;1716111;82;21090;-84
2021/09/08 00:04:55;;;;;;;30.60;15.72;;;;;;;8.15;100.00;102324.30;1710117;82;20999;-83
2021/09/08 00:07:22;;;;;;;28.07;15.48;;;;;;;8.12;100.00;102324.87;1736695;82;21018;-85
2021/09/08 00:09:50;;;;;;;26.45;14.73;;;;;;;8.17;100.00;102323.80;1716072;82;21007;-81
2021/09/08 00:12:18;;;;;;;21.33;13.98;;;;;;;8.20;100.00;102325.00;1716080;82;21011;-84
2021/09/08 00:14:47;;;;;;;19.35;13.15;;;;;;;8.21;100.00;102327.95;1736649;82;20991;-83
2021/09/08 00:17:15;;;;;;;20.43;13.90;;;;;;;8.14;100.00;102332.98;1736617;82;21498;-84
2021/09/08 00:19:44;;;;;;;25.68;14.98;;;;;;;8.05;100.00;102322.98;1736739;82;21050;-86
2021/09/08 00:22:12;;;;;;;37.55;14.40;;;;;;;8.02;100.00;102330.39;1710568;82;21046;-83
2021/09/08 00:24:39;;;;;;;22.02;14.18;;;;;;;7.97;100.00;102330.20;1716723;82;21062;-87
2021/09/08 00:27:06;;;;;;;21.02;14.15;;;;;;;7.93;100.00;102335.95;1710522;82;21088;-86
2021/09/08 00:29:34;;;;;;;25.00;14.35;;;;;;;7.87;100.00;102333.12;1710434;82;22033;-85
2021/09/08 00:32:04;;;;;;;27.55;14.95;;;;;;;7.72;100.00;102332.38;1710259;82;21062;-82
2021/09/08 00:34:31;;;;;;;27.25;15.60;;;;;;;7.64;100.00;102334.39;1716304;82;21533;-84
2021/09/08 00:36:59;;;;;;;35.50;15.60;;;;;;;7.61;100.00;102334.48;1710455;82;21074;-86
2021/09/08 00:39:27;;;;;;;24.35;15.05;;;;;;;7.65;100.00;102336.09;1736716;82;21165;-82
2021/09/08 00:41:55;;;;;;;19.15;13.70;;;;;;;7.70;100.00;102330.28;1716376;82;21581;-83
2021/09/08 00:44:26;;;;;;;22.27;14.90;;;;;;;7.72;100.00;102325.43;1736639;82;21023;-84
2021/09/08 00:46:56;;;;;;;22.70;15.48;;;;;;;7.75;100.00;102329.66;1714538;82;22105;-84
2021/09/08 00:49:24;;;;;;;23.10;15.10;;;;;;;7.77;100.00;102330.92;1710782;82;21074;-82
2021/09/08 00:51:52;;;;;;;23.98;16.07;;;;;;;7.77;100.00;102329.16;1710498;82;21800;-82
2021/09/08 00:54:22;;;;;;;30.02;18.52;;;;;;;7.78;100.00;102327.39;1710246;82;21074;-85
2021/09/08 00:56:53;;;;;;;36.25;19.75;;;;;;;7.78;100.00;102328.27;1736681;82;21553;-84
2021/09/08 00:59:21;;;;;;;32.90;18.32;;;;;;;7.75;100.00;102321.87;1715058;82;21098;-83
2021/09/08 01:01:48;;;;;;;27.70;16.27;;;;;;;7.77;100.00;102326.56;1736814;82;21031;-84
2021/09/08 01:04:16;;;;;;;45.88;17.27;;;;;;;7.77;100.00;102326.56;1710393;82;21036;-83
2021/09/08 01:06:46;;;;;;;77.45;17.12;;;;;;;7.79;100.00;102323.47;1736552;82;21073;-84
2021/09/08 01:09:17;;;;;;;32.98;15.20;;;;;;;7.85;100.00;102327.13;1713951;82;21054;-84
2021/09/08 01:11:44;;;;;;;21.75;15.18;;;;;;;7.84;100.00;102324.14;1736742;82;21038;-86
2021/09/08 01:14:13;;;;;;;20.17;14.25;;;;;;;7.80;100.00;102329.48;1735670;82;21533;-83
2021/09/08 01:16:41;;;;;;;34.27;15.95;;;;;;;7.72;100.00;102328.48;1710610;82;21923;-86
2021/09/08 01:19:10;;;;;;;34.33;18.17;;;;;;;7.68;100.00;102334.66;1736597;82;21035;-87
2021/09/08 01:21:37;;;;;;;34.38;18.95;;;;;;;7.68;100.00;102332.08;1716359;82;21514;-85
2021/09/08 01:24:07;;;;;;;37.28;21.48;;;;;;;7.72;100.00;102337.56;1710417;82;21058;-84
2021/09/08 01:26:41;;;;;;;59.38;24.37;;;;;;;7.74;100.00;102331.84;1673814;83;21494;-86
2021/09/08 01:29:09;;;;;;;100.00;28.00;;;;;;;7.76;100.00;102335.23;1711298;83;21159;-86
2021/09/08 01:31:37;;;;;;;62.50;25.80;;;;;;;7.77;100.00;102330.45;1716139;83;21058;-86
2021/09/08 01:34:05;;;;;;;44.65;23.47;;;;;;;7.81;100.00;102328.13;1715919;83;21157;-84
2021/09/08 01:36:40;;;;;;;40.10;22.48;;;;;;;7.87;100.00;102329.23;1715497;83;21067;-84
2021/09/08 01:39:08;;;;;;;64.37;22.52;;;;;;;7.95;100.00;102320.31;1715724;83;21509;-85
2021/09/08 01:41:35;;;;;;;32.40;20.85;;;;;;;7.97;100.00;102322.41;1710688;83;21148;-86
2021/09/08 01:44:03;;;;;;;38.08;20.37;;;;;;;7.98;100.00;102315.00;1715993;83;20991;-85
2021/09/08 01:46:31;;;;;;;30.00;18.30;;;;;;;7.98;100.00;102316.30;1710685;83;21023;-83
2021/09/08 01:48:58;;;;;;;30.00;18.55;;;;;;;7.95;100.00;102310.77;1715448;83;21074;-83
2021/09/08 01:51:25;;;;;;;33.13;19.27;;;;;;;7.92;100.00;102315.23;1709397;83;21018;-83
2021/09/08 01:53:52;;;;;;;34.15;18.98;;;;;;;7.88;100.00;102311.47;1706937;83;21103;-85
2021/09/08 01:58:56;;;;;;;29.77;18.32;;;;;;;7.84;100.00;102307.28;1869680;76;22635;-83
2021/09/08 02:01:25;;;;;;;27.40;17.40;;;;;;;7.77;100.00;102314.89;1825699;78;20978;-85
2021/09/08 02:03:52;;;;;;;28.83;17.55;;;;;;;7.72;100.00;102309.87;1800796;78;21108;-86
2021/09/08 02:06:26;;;;;;;28.30;17.23;;;;;;;7.70;100.00;102312.13;1777084;78;20934;-85
2021/09/08 02:08:57;;;;;;;29.52;18.40;;;;;;;7.65;100.00;102318.77;1832666;77;20922;-86
2021/09/08 02:11:24;;;;;;;31.12;18.27;;;;;;;7.63;100.00;102318.44;1824383;77;21056;-86
2021/09/08 02:13:51;;;;;;;30.85;17.62;;;;;;;7.57;100.00;102320.33;1773681;80;20941;-84
2021/09/08 02:16:21;;;;;;;31.93;18.35;;;;;;;7.51;100.00;102315.83;1773754;80;22257;-87
2021/09/08 02:18:51;;;;;;;25.80;15.93;;;;;;;7.46;100.00;102315.98;1794678;77;20910;-87
2021/09/08 02:21:19;;;;;;;25.48;15.25;;;;;;;7.41;100.00;102308.83;1789321;78;21468;-83
2021/09/08 02:23:47;;;;;;;26.25;14.53;;;;;;;7.37;100.00;102321.48;1793365;78;21046;-85
2021/09/08 02:26:16;;;;;;;21.23;13.48;;;;;;;7.32;100.00;102320.34;1825756;77;21092;-86
2021/09/08 02:28:43;;;;;;;22.37;12.73;;;;;;;7.31;100.00;102316.52;1805701;78;21124;-84
2021/09/08 02:31:10;;;;;;;18.42;11.80;;;;;;;7.28;100.00;102316.61;1825968;78;20989;-88
2021/09/08 02:33:38;;;;;;;19.27;12.70;;;;;;;7.25;100.00;102317.10;1805049;78;21622;-87
2021/09/08 02:36:06;;;;;;;17.48;11.33;;;;;;;7.25;100.00;102327.47;1805271;78;21567;-87
2021/09/08 02:38:33;;;;;;;17.90;10.58;;;;;;;7.25;100.00;102318.86;1805606;78;20994;-85
2021/09/08 02:41:09;;;;;;;28.17;11.12;;;;;;;7.14;100.00;102319.66;1816403;77;21185;-85
2021/09/08 02:43:36;;;;;;;20.48;10.03;;;;;;;7.03;100.00;102320.88;1787484;79;21064;-86
2021/09/08 02:46:06;;;;;;;19.02;10.72;;;;;;;7.07;100.00;102320.33;1782592;79;21076;-86
2021/09/08 02:48:34;;;;;;;21.40;10.48;;;;;;;7.06;100.00;102312.16;1814166;77;21033;-85
2021/09/08 02:51:04;;;;;;;17.17;10.63;;;;;;;7.08;100.00;102314.25;1814309;77;21107;-87
2021/09/08 02:53:33;;;;;;;18.67;10.20;;;;;;;7.09;100.00;102315.95;1773795;79;21063;-85
2021/09/08 02:56:03;;;;;;;40.50;11.70;;;;;;;7.10;100.00;102312.44;1781768;79;20976;-86
2021/09/08 02:58:31;;;;;;;31.17;12.23;;;;;;;7.10;100.00;102313.30;1759502;79;21071;-88
2021/09/08 03:00:58;;;;;;;30.23;13.75;;;;;;;7.07;100.00;102313.39;1798782;78;21075;-84
2021/09/08 03:03:25;;;;;;;29.67;13.88;;;;;;;7.11;100.00;102318.02;1829951;76;21507;-84
2021/09/08 03:05:52;;;;;;;36.68;13.18;;;;;;;7.12;100.00;102318.88;1797755;78;21790;-87
2021/09/08 03:08:19;;;;;;;32.55;13.28;;;;;;;7.10;100.00;102318.91;1799780;78;21110;-87
2021/09/08 03:10:47;;;;;;;24.95;12.18;;;;;;;7.06;100.00;102318.17;1800498;78;21012;-84
2021/09/08 03:13:17;;;;;;;24.75;11.95;;;;;;;7.09;100.00;102321.97;1801033;78;21048;-84
2021/09/08 03:15:46;;;;;;;25.15;12.60;;;;;;;7.17;100.00;102322.98;1805487;78;21099;-89
2021/09/08 03:18:13;;;;;;;32.30;12.82;;;;;;;7.28;100.00;102321.79;1769399;79;21475;-86
2021/09/08 03:20:40;;;;;;;35.43;12.88;;;;;;;7.37;100.00;102320.19;1769432;79;20980;-87
2021/09/08 03:23:07;;;;;;;28.60;13.03;;;;;;;7.46;100.00;102321.17;1769427;79;21027;-86
2021/09/08 03:25:34;;;;;;;25.25;13.62;;;;;;;7.48;100.00;102327.16;1769159;78;20981;-85
2021/09/08 03:28:01;;;;;;;23.98;12.98;;;;;;;7.46;100.00;102321.17;1769020;79;21059;-83
2021/09/08 03:30:28;;;;;;;22.52;12.43;;;;;;;7.45;100.00;102322.06;1769294;79;21076;-88
2021/09/08 03:32:55;;;;;;;32.28;11.38;;;;;;;7.43;100.00;102322.56;1769037;78;21483;-82
2021/09/08 03:35:22;;;;;;;22.87;11.45;;;;;;;7.35;100.00;102325.43;1798470;78;20981;-87
2021/09/08 03:37:49;;;;;;;17.82;10.65;;;;;;;7.26;100.00;102329.16;1799077;77;21047;-85
2021/09/08 03:40:16;;;;;;;19.52;11.73;;;;;;;7.20;100.00;102329.38;1829522;77;21068;-84
2021/09/08 03:42:44;;;;;;;20.27;12.70;;;;;;;7.15;100.00;102329.98;1800812;78;21049;-84
2021/09/08 03:45:14;;;;;;;19.65;11.50;;;;;;;7.08;100.00;102340.16;1830792;77;21171;-82
2021/09/08 03:47:41;;;;;;;19.25;10.32;;;;;;;6.99;100.00;102330.09;1788089;78;21076;-85
2021/09/08 03:50:10;;;;;;;16.73;9.30;;;;;;;6.90;100.00;102325.61;1769293;79;21070;-83
2021/09/08 03:52:39;;;;;;;14.43;7.83;;;;;;;6.89;100.00;102326.50;1798339;78;21000;-85
2021/09/08 03:55:07;;;;;;;16.52;8.25;;;;;;;6.89;100.00;102325.20;1784703;78;21039;-86
2021/09/08 03:57:35;;;;;;;83.42;11.08;;;;;;;6.89;100.00;102321.32;1780259;79;21515;-85
2021/09/08 04:00:08;;;;;;;100.95;12.75;;;;;;;6.88;100.00;102320.92;1781099;79;21032;-83
2021/09/08 04:02:36;;;;;;;72.95;12.28;;;;;;;6.91;100.00;102326.02;1750559;80;21087;-86
2021/09/08 04:05:04;;;;;;;40.88;11.33;;;;;;;6.96;100.00;102324.57;1745320;79;21077;-88
2021/09/08 04:07:32;;;;;;;25.00;8.98;;;;;;;6.99;100.00;102327.05;1781234;79;21140;-89
2021/09/08 04:09:59;;;;;;;24.50;9.70;;;;;;;6.99;100.00;102321.03;1745583;80;21017;-84
2021/09/08 04:12:25;;;;;;;16.48;9.08;;;;;;;6.99;100.00;102324.45;1781336;79;21123;-88
2021/09/08 04:14:54;;;;;;;15.78;9.63;;;;;;;7.02;100.00;102321.77;1781361;79;21064;-88
2021/09/08 04:17:21;;;;;;;22.25;11.15;;;;;;;7.05;100.00;102328.13;1750813;80;21034;-87
2021/09/08 04:19:48;;;;;;;21.55;11.48;;;;;;;7.10;100.00;102324.09;1776841;79;21041;-84
2021/09/08 04:22:15;;;;;;;20.23;11.30;;;;;;;7.13;100.00;102319.28;1776237;80;21069;-89
2021/09/08 04:24:43;;;;;;;19.00;11.90;;;;;;;7.15;100.00;102322.65;1776425;79;21065;-86
2021/09/08 04:27:10;;;;;;;16.70;11.10;;;;;;;7.17;100.00;102319.10;1781361;80;21053;-84
2021/09/08 04:29:37;;;;;;;14.50;11.45;;;;;;;7.20;100.00;102325.49;1776382;79;21022;-89
2021/09/08 04:32:06;;;;;;;17.57;11.43;;;;;;;7.30;100.00;102324.72;1776577;79;21490;-88
2021/09/08 04:34:33;;;;;;;17.60;12.37;;;;;;;7.45;100.00;102316.88;1776891;79;21084;-85
2021/09/08 04:37:00;;;;;;;19.40;12.23;;;;;;;7.60;100.00;102319.39;1782451;77;21014;-86
2021/09/08 04:39:27;;;;;;;21.45;12.07;;;;;;;7.68;100.00;102318.67;1777068;79;21022;-87
2021/09/08 04:41:53;;;;;;;16.62;11.93;;;;;;;7.75;100.00;102315.39;1715944;82;21042;-85
2021/09/08 04:44:21;;;;;;;19.30;13.98;;;;;;;7.82;100.00;102310.84;1758537;79;21114;-84
2021/09/08 04:46:48;;;;;;;25.32;14.63;;;;;;;7.88;100.00;102317.09;1734824;81;21072;-86
2021/09/08 04:49:14;;;;;;;20.57;13.45;;;;;;;7.96;100.00;102320.72;1769654;79;21092;-86
2021/09/08 04:51:41;;;;;;;21.48;13.05;;;;;;;8.05;100.00;102319.09;1736166;81;21041;-84
2021/09/08 04:54:08;;;;;;;23.95;12.80;;;;;;;8.13;100.00;102318.31;1739163;82;20941;-87
2021/09/08 04:56:37;;;;;;;23.77;15.13;;;;;;;8.20;100.00;102318.50;1739307;82;21045;-86
2021/09/08 04:59:04;;;;;;;20.40;14.80;;;;;;;8.30;100.00;102318.13;1709317;82;21081;-88
2021/09/08 05:01:32;;;;;;;25.23;16.52;;;;;;;8.40;100.00;102318.64;1732609;80;21099;-88
2021/09/08 05:03:59;;;;;;;26.75;15.43;;;;;;;8.50;100.00;102320.84;1761195;79;21063;-87
2021/09/08 05:06:26;;;;;;;22.50;15.98;;;;;;;8.59;100.00;102316.20;1705894;82;21089;-88
2021/09/08 05:08:53;;;;;;;27.62;16.42;;;;;;;8.66;100.00;102314.58;1748908;80;21147;-86
2021/09/08 05:11:20;;;;;;;25.37;15.30;;;;;;;8.74;100.00;102310.39;1751592;80;21020;-87
2021/09/08 05:13:47;;;;;;;18.42;14.13;;;;;;;8.80;100.00;102313.20;1750888;80;21087;-89
2021/09/08 05:16:13;;;;;;;23.12;14.90;;;;;;;8.87;100.00;102316.38;1751776;79;21063;-88
2021/09/08 05:18:40;;;;;;;19.17;14.85;;;;;;;8.94;100.00;102316.08;1742472;80;21040;-86
2021/09/08 05:21:08;;;;;;;26.80;15.65;;;;;;;9.03;100.00;102313.53;1772540;79;21143;-86
2021/09/08 05:23:35;;;;;;;20.08;15.50;;;;;;;9.14;100.00;102313.95;1721100;81;21118;-88
2021/09/08 05:26:06;;;;;;;23.02;15.30;;;;;;;9.23;100.00;102315.77;1721632;82;21027;-89
2021/09/08 05:28:33;;;;;;;17.85;14.78;;;;;;;9.32;100.00;102319.28;1721751;81;21574;-86
2021/09/08 05:31:00;;;;;;;24.12;15.50;;;;;;;9.40;100.00;102317.20;1721369;82;21585;-86
2021/09/08 05:33:26;;;;;;;20.00;13.83;;;;;;;9.50;100.00;102315.48;1747291;81;22011;-88
2021/09/08 05:35:53;;;;;;;17.40;14.30;;;;;;;9.57;100.00;102319.06;1728919;80;21625;-88
2021/09/08 05:38:20;;;;;;;20.88;13.55;;;;;;;9.67;100.00;102309.55;1754790;80;20982;-86
2021/09/08 05:40:49;;;;;;;21.40;15.25;;;;;;;9.78;100.00;102309.91;1751470;80;21008;-84
2021/09/08 05:43:16;;;;;;;20.65;14.63;;;;;;;9.89;100.00;102309.45;1778170;79;21055;-86
2021/09/08 05:45:43;;;;;;;19.98;15.43;;;;;;;9.99;100.00;102313.30;1778046;80;21203;-84
2021/09/08 05:48:11;;;;;;;21.65;14.95;;;;;;;10.09;100.00;102313.27;1777969;80;21028;-87
2021/09/08 05:50:38;;;;;;;18.48;13.53;;;;;;;10.18;100.00;102308.09;1751603;80;21039;-85
2021/09/08 05:53:06;;;;;;;18.60;12.25;;;;;;;10.31;100.00;102303.63;1778005;80;21058;-84
2021/09/08 05:55:33;;;;;;;18.77;11.43;;;;;;;10.43;100.00;102298.33;1750793;80;20992;-83
2021/09/08 05:58:00;;;;;;;22.07;13.05;;;;;;;10.56;100.00;102295.51;1753026;78;21063;-86
2021/09/08 06:00:28;;;;;;;24.77;12.70;;;;;;;10.72;100.00;102296.92;1761774;79;20987;-88
2021/09/08 06:02:55;;;;;;;22.48;12.37;;;;;;;10.89;100.00;102302.59;1797844;78;20892;-83
2021/09/08 06:05:22;;;;;;;18.70;12.43;;;;;;;11.02;100.00;102300.22;1770625;79;21426;-83
2021/09/08 06:07:49;;;;;;;18.35;11.48;;;;;;;11.15;100.00;102301.75;1770726;79;21297;-83
2021/09/08 06:10:20;;;;;;;21.42;12.58;;;;;;;11.29;100.00;102300.58;1746946;79;21777;-87
2021/09/08 06:12:48;;;;;;;25.37;13.65;;;;;;;11.44;100.00;102298.10;1740359;81;21023;-89
2021/09/08 06:15:17;;;;;;;25.57;13.53;;;;;;;11.60;100.00;102296.85;1712820;81;20990;-85
2021/09/08 06:17:44;;;;;;;22.95;15.03;;;;;;;11.76;100.00;102291.20;1740101;81;21534;-86
2021/09/08 06:20:11;;;;;;;20.95;13.40;;;;;;;11.91;100.00;102293.43;1740205;80;21714;-88
2021/09/08 06:22:40;;;;;;;20.52;12.93;;;;;;;12.07;100.00;102293.93;1740344;80;22390;-85
2021/09/08 06:25:09;;;;;;;30.70;14.70;;;;;;;12.20;100.00;102292.34;1740293;80;21051;-86
2021/09/08 06:27:37;;;;;;;25.27;13.60;;;;;;;12.33;100.00;102289.04;1740555;81;21029;-87
2021/09/08 06:30:06;;;;;;;19.82;12.37;;;;;;;12.48;100.00;102289.48;1740773;80;21098;-85
2021/09/08 06:32:33;;;;;;;19.85;11.65;;;;;;;12.63;100.00;102291.70;1740375;80;21094;-85
2021/09/08 06:35:00;;;;;;;17.80;10.72;;;;;;;12.80;100.00;102287.27;1740308;80;21154;-85
2021/09/08 06:37:28;;;;;;;14.55;9.70;;;;;;;12.94;100.00;102286.82;1782993;78;21057;-85
2021/09/08 06:39:55;;;;;;;14.18;9.73;;;;;;;13.12;100.00;102285.36;1770684;79;21116;-84
2021/09/08 06:42:21;;;;;;;12.65;8.78;;;;;;;13.29;100.00;102288.30;1847446;77;21571;-88
2021/09/08 06:44:52;;;;;;;20.15;10.10;;;;;;;13.47;100.00;102286.37;1771066;79;21013;-85
2021/09/08 06:47:17;;;;;;;12.53;8.65;;;;;;;13.62;100.00;102288.49;1817375;77;21051;-85
2021/09/08 06:49:47;;;;;;;16.97;10.50;;;;;;;13.76;100.00;102282.89;1797949;79;21048;-87
2021/09/08 06:52:13;;;;;;;15.28;9.43;;;;;;;13.91;100.00;102286.31;1797157;79;21001;-87
2021/09/08 06:54:41;;;;;;;18.23;10.03;;;;;;;14.08;100.00;102281.34;1821432;77;21002;-86
2021/09/08 06:57:09;;;;;;;11.85;8.35;;;;;;;14.26;100.00;102281.93;1821662;77;21071;-88
2021/09/08 06:59:36;;;;;;;14.55;8.45;;;;;;;14.43;100.00;102279.52;1794174;77;21041;-86
2021/09/08 07:02:03;;;;;;;17.23;9.23;;;;;;;14.57;100.00;102277.31;1745557;79;21499;-86
2021/09/08 07:04:30;;;;;;;11.43;7.10;;;;;;;14.71;100.00;102275.95;1847598;77;21033;-86
2021/09/08 07:06:57;;;;;;;12.53;7.20;;;;;;;14.89;96.73;102282.23;1745479;79;21453;-86
2021/09/08 07:09:24;;;;;;;12.15;7.47;;;;;;;15.06;93.11;102279.31;1821728;77;21065;-88
2021/09/08 07:11:53;;;;;;;17.57;7.62;;;;;;;15.22;92.76;102274.33;1797902;79;20981;-87
2021/09/08 07:14:20;;;;;;;9.03;6.00;;;;;;;15.33;86.83;102271.81;1849262;77;21614;-87
2021/09/08 07:16:47;;;;;;;10.32;5.60;;;;;;;15.44;80.96;102270.58;1797911;79;21544;-88
2021/09/08 07:19:14;;;;;;;11.22;5.80;;;;;;;15.58;81.14;102271.42;1797149;79;20987;-87
2021/09/08 07:21:41;;;;;;;8.08;4.72;;;;;;;15.73;75.82;102266.85;1797157;79;21006;-87
2021/09/08 07:24:08;;;;;;;8.80;3.87;;;;;;;15.87;72.07;102262.80;1797234;79;21067;-86
2021/09/08 07:26:35;;;;;;;7.97;4.08;;;;;;;16.05;63.35;102256.71;1847569;77;20990;-86
2021/09/08 07:29:04;;;;;;;5.08;3.37;;;;;;;16.22;61.43;102257.27;1770833;79;20993;-88
2021/09/08 07:31:31;;;;;;;6.17;3.70;;;;;;;16.35;57.48;102254.09;1849129;77;20998;-87
2021/09/08 07:33:58;;;;;;;3.52;2.80;;;;;;;16.49;55.91;102250.91;1796997;79;21040;-89
2021/09/08 07:36:26;;;;;;;5.83;3.17;;;;;;;16.60;53.20;102247.01;1821324;77;21288;-87
2021/09/08 07:38:54;;;;;;;5.83;3.27;;;;;;;16.68;51.96;102243.78;1797046;79;21049;-86
2021/09/08 07:41:21;;;;;;;4.40;3.45;;;;;;;16.80;52.19;102255.17;1821377;77;20990;-86
2021/09/08 07:43:50;;;;;;;3.77;3.15;;;;;;;16.91;50.72;102247.31;1797888;79;20993;-87
2021/09/08 07:46:17;;;;;;;3.70;3.20;;;;;;;17.02;50.41;102243.39;1745261;79;21025;-86
2021/09/08 07:48:44;;;;;;;6.42;3.47;;;;;;;17.13;49.92;102249.17;1847921;77;21125;-85
2021/09/08 07:51:11;;;;;;;3.30;2.70;;;;;;;17.21;48.17;102243.30;1770560;79;21052;-89
2021/09/08 07:53:38;;;;;;;3.25;2.77;;;;;;;17.31;48.44;102250.84;1821336;77;20919;-87
2021/09/08 07:56:05;;;;;;;4.70;3.27;;;;;;;17.43;46.76;102249.50;1770693;79;20990;-85
2021/09/08 07:58:32;;;;;;;3.72;2.77;;;;;;;17.50;45.58;102248.91;1821974;77;21101;-88
2021/09/08 08:00:59;;;;;;;5.08;3.00;;;;;;;17.58;46.74;102244.83;1783295;80;21165;-86
2021/09/08 08:03:26;;;;;;;4.22;2.65;;;;;;;17.67;45.38;102244.10;1780309;80;21085;-86
2021/09/08 08:05:53;;;;;;;6.10;3.37;;;;;;;17.71;44.70;102244.20;1775115;79;21038;-87
2021/09/08 08:08:19;;;;;;;2.85;2.50;;;;;;;17.74;43.27;102246.60;1783720;79;20982;-87
2021/09/08 08:10:47;;;;;;;3.27;2.85;;;;;;;17.77;43.75;102243.73;1775170;79;21041;-87
2021/09/08 08:13:15;;;;;;;3.02;2.72;;;;;;;17.81;43.56;102243.83;1774905;79;20969;-88
2021/09/08 08:15:42;;;;;;;4.83;3.22;;;;;;;17.87;43.23;102249.09;1754716;80;21045;-89
2021/09/08 08:18:10;;;;;;;5.15;2.70;;;;;;;17.94;44.02;102242.36;1804550;79;21476;-87
2021/09/08 08:20:37;;;;;;;3.98;3.02;;;;;;;18.05;42.64;102247.28;1749504;79;21512;-85
2021/09/08 08:23:04;;;;;;;3.15;2.30;;;;;;;18.09;41.14;102240.78;1754578;80;21473;-86
2021/09/08 08:25:31;;;;;;;3.17;2.65;;;;;;;18.09;42.53;102240.78;1804758;79;21194;-86
2021/09/08 08:28:04;;;;;;;3.58;2.85;;;;;;;18.15;43.87;102236.81;1774849;79;21603;-87
2021/09/08 08:30:34;;;;;;;4.33;3.00;;;;;;;18.23;42.48;102229.94;1754438;80;21030;-86
2021/09/08 08:33:04;;;;;;;3.33;2.77;;;;;;;18.29;43.41;102229.92;1805011;79;20926;-87
2021/09/08 08:35:33;;;;;;;3.07;2.67;;;;;;;18.36;41.17;102232.89;1775326;79;21044;-85
2021/09/08 08:38:00;;;;;;;5.25;2.50;;;;;;;18.39;41.08;102229.98;1774951;79;21015;-86
2021/09/08 08:40:31;;;;;;;2.98;2.67;;;;;;;18.44;42.78;102226.50;1754678;80;21073;-90
2021/09/08 08:43:00;;;;;;;2.87;2.58;;;;;;;18.53;41.76;102224.88;1793889;78;21472;-86
2021/09/08 08:45:30;;;;;;;3.55;2.80;;;;;;;18.57;41.97;102222.36;1804660;79;21041;-86
2021/09/08 08:47:59;;;;;;;4.78;2.67;;;;;;;18.64;40.02;102220.02;1775277;79;21916;-86
2021/09/08 08:50:26;;;;;;;6.65;3.20;;;;;;;18.68;40.52;102213.53;1775052;79;21156;-87
2021/09/08 08:52:56;;;;;;;4.47;2.75;;;;;;;18.80;41.31;102211.66;1754771;80;21125;-86
2021/09/08 08:55:24;;;;;;;3.83;2.45;;;;;;;18.91;40.62;102203.17;1775021;79;21582;-88
2021/09/08 08:57:51;;;;;;;4.42;3.05;;;;;;;18.98;41.26;102203.98;1804175;79;21018;-85
2021/09/08 09:00:21;;;;;;;6.17;3.22;;;;;;;19.04;37.96;102206.09;1763003;80;21061;-86
2021/09/08 09:02:52;;;;;;;4.28;3.02;;;;;;;19.07;38.26;102200.56;1846709;77;21129;-86
2021/09/08 09:05:38;;;;;;;2.83;2.60;;;;;;;19.04;37.39;102200.81;1794444;80;20956;-87
2021/09/08 09:08:08;;;;;;;3.90;2.72;;;;;;;18.98;38.10;102198.70;1765555;80;21065;-85
2021/09/08 09:10:38;;;;;;;3.67;2.75;;;;;;;19.02;39.05;102197.49;1846540;77;21033;-87
2021/09/08 09:13:08;;;;;;;4.00;3.15;;;;;;;19.06;38.47;102187.86;1791678;80;20998;-86
2021/09/08 09:15:36;;;;;;;5.25;2.55;;;;;;;19.10;38.98;102196.34;1819011;77;22442;-87
2021/09/08 09:18:03;;;;;;;4.37;2.98;;;;;;;19.19;39.93;102192.87;1755179;79;21460;-88
2021/09/08 09:20:32;;;;;;;3.83;2.60;;;;;;;19.32;38.95;102186.54;1749747;80;21131;-86
2021/09/08 09:23:03;;;;;;;3.05;2.75;;;;;;;19.37;37.41;102192.23;1766061;77;21083;-88
2021/09/08 09:25:36;;;;;;;3.03;2.40;;;;;;;19.33;37.60;102180.29;1786102;77;21503;-85
2021/09/08 09:28:08;;;;;;;3.58;2.92;;;;;;;19.39;38.90;102187.67;1784817;79;21487;-85
2021/09/08 09:30:41;;;;;;;4.67;3.08;;;;;;;19.47;37.89;102185.19;1786217;79;21107;-89
2021/09/08 09:33:08;;;;;;;4.03;2.90;;;;;;;19.53;36.49;102182.48;1786224;77;21473;-86
2021/09/08 09:35:36;;;;;;;2.90;2.60;;;;;;;19.55;37.78;102176.09;1760468;79;21582;-86
2021/09/08 09:38:05;;;;;;;4.62;3.00;;;;;;;19.64;37.74;102169.64;1802436;77;21028;-86
2021/09/08 09:40:36;;;;;;;3.22;2.90;;;;;;;19.75;37.75;102177.92;1778732;77;21072;-88
2021/09/08 09:43:09;;;;;;;3.75;2.75;;;;;;;19.83;36.78;102173.59;1767361;79;21068;-90
2021/09/08 09:45:40;;;;;;;4.53;3.20;;;;;;;19.85;36.30;102171.69;1786242;77;21004;-87
2021/09/08 09:48:09;;;;;;;4.05;2.90;;;;;;;19.82;35.86;102165.34;1786601;79;21610;-87
2021/09/08 09:50:37;;;;;;;3.60;2.60;;;;;;;19.83;37.39;102168.31;1811927;77;21021;-87
2021/09/08 09:53:04;;;;;;;4.15;3.27;;;;;;;19.85;36.34;102166.91;1786172;79;21037;-87
2021/09/08 09:55:31;;;;;;;3.45;2.95;;;;;;;19.82;36.54;102166.67;1786344;79;21974;-86
2021/09/08 09:57:59;;;;;;;3.83;3.08;;;;;;;19.79;36.05;102166.94;1812439;77;21330;-86
2021/09/08 10:00:26;;;;;;;4.15;3.00;;;;;;;19.78;35.74;102163.12;1769095;78;21068;-88
2021/09/08 10:02:53;;;;;;;4.72;3.05;;;;;;;19.80;36.13;102155.86;1755331;79;21087;-87
2021/09/08 10:05:20;;;;;;;3.42;3.00;;;;;;;19.86;37.32;102157.50;1734982;80;22209;-86
2021/09/08 10:07:48;;;;;;;3.75;3.17;;;;;;;19.93;36.91;102149.86;1750237;80;21009;-86
2021/09/08 10:10:23;;;;;;;4.87;3.10;;;;;;;20.05;36.02;102158.95;1734765;80;21571;-86
2021/09/08 10:12:59;;;;;;;4.65;3.47;;;;;;;20.12;35.14;102149.01;1778446;79;21068;-88
2021/09/08 10:15:29;;;;;;;5.58;3.40;;;;;;;20.15;35.43;102151.35;1746972;80;21091;-86
2021/09/08 10:18:10;;;;;;;7.55;3.77;;;;;;;20.15;33.60;102146.56;1750558;80;23606;-85
2021/09/08 10:20:44;;;;;;;6.40;3.25;;;;;;;20.13;33.12;102141.89;1750075;79;21040;-85
2021/09/08 10:23:16;;;;;;;4.03;2.90;;;;;;;20.15;33.22;102138.13;1775197;79;21001;-87
2021/09/08 10:25:47;;;;;;;5.17;2.98;;;;;;;20.21;34.34;102134.59;1746749;80;20982;-86
2021/09/08 10:28:16;;;;;;;3.95;2.92;;;;;;;20.29;34.29;102132.89;1746660;80;21670;-87
2021/09/08 10:30:45;;;;;;;6.35;3.25;;;;;;;20.35;34.84;102126.20;1734849;79;21005;-87
2021/09/08 10:33:13;;;;;;;5.55;2.92;;;;;;;20.43;33.06;102121.53;1750094;80;21002;-86
2021/09/08 10:35:41;;;;;;;5.10;3.10;;;;;;;20.51;34.50;102121.61;1735084;79;21444;-86
2021/09/08 10:38:18;;;;;;;7.05;2.90;;;;;;;20.66;34.83;102123.31;1735320;80;21056;-85
2021/09/08 10:40:48;;;;;;;3.90;2.90;;;;;;;20.81;32.75;102122.38;1735595;79;21044;-86
2021/09/08 10:43:16;;;;;;;3.73;2.70;;;;;;;20.82;33.71;102115.27;1735323;79;21827;-84
2021/09/08 10:45:53;;;;;;;4.45;3.20;;;;;;;20.81;33.74;102114.44;1734974;79;20993;-84
2021/09/08 10:48:43;;;;;;;3.65;2.90;;;;;;;20.83;34.01;102109.81;1747895;77;21119;-86
2021/09/08 10:51:33;;;;;;;3.87;2.80;;;;;;;20.91;32.46;102103.30;1749739;79;22023;-86
2021/09/08 10:54:06;;;;;;;3.87;2.92;;;;;;;21.00;32.99;102106.88;1750523;77;21155;-85
2021/09/08 10:56:46;;;;;;;5.12;2.83;;;;;;;21.07;33.17;102105.81;1794311;77;21067;-85
2021/09/08 10:59:14;;;;;;;3.33;3.02;;;;;;;21.10;32.77;102108.14;1745591;80;22108;-86
2021/09/08 11:01:42;;;;;;;4.67;3.25;;;;;;;21.10;32.02;102101.05;1750486;79;21024;-85
2021/09/08 11:04:16;;;;;;;6.37;3.95;;;;;;;21.13;32.41;102105.21;1807088;77;21009;-85
2021/09/08 11:06:48;;;;;;;4.78;3.25;;;;;;;21.18;33.59;102099.47;1789884;77;21495;-87
2021/09/08 11:09:18;;;;;;;9.25;2.95;;;;;;;21.18;33.85;102100.80;1778774;78;21084;-86
2021/09/08 11:11:58;;;;;;;6.90;3.60;;;;;;;21.25;34.57;102096.56;1783026;78;21071;-87
2021/09/08 11:14:49;;;;;;;5.67;3.50;;;;;;;21.30;34.47;102091.63;1794442;78;21021;-86
2021/09/08 11:17:26;;;;;;;8.08;4.22;;;;;;;21.32;34.44;102092.80;1799947;77;21586;-87
2021/09/08 11:19:59;;;;;;;4.15;2.60;;;;;;;21.27;33.53;102091.95;1754072;79;21017;-86
2021/09/08 11:22:26;;;;;;;4.12;3.27;;;;;;;21.22;33.73;102088.90;1765735;79;21774;-86